sensor_id;sensor_type;location;lat;lon;timestamp;P1;durP1;ratioP1;P2;durP2;ratioP2
18146;SDS011;9199;48.832;9.182;2023-07-02T00:01:17;7.53;;;3.70;;
18146;SDS011;9199;48.832;9.182;2023-07-02T00:03:43;6.50;;;3.65;;
18146;SDS011;9199;48.832;9.182;2023-07-02T00:06:10;6.28;;;3.70;;
18146;SDS011;9199;48.832;9.182;2023-07-02T00:08:37;7.97;;;3.95;;
18146;SDS011;9199;48.832;9.182;2023-07-02T00:11:05;5.90;;;3.30;;
18146;SDS011;9199;48.832;9.182;2023-07-02T00:13:32;7.70;;;3.40;;
18146;SDS011;9199;48.832;9.182;2023-07-02T00:16:00;6.60;;;3.63;;
18146;SDS011;9199;48.832;9.182;2023-07-02T00:18:27;5.97;;;3.30;;
18146;SDS011;9199;48.832;9.182;2023-07-02T00:20:59;7.65;;;3.60;;
18146;SDS011;9199;48.832;9.182;2023-07-02T00:23:27;7.60;;;3.70;;
18146;SDS011;9199;48.832;9.182;2023-07-02T00:25:54;6.85;;;3.60;;
18146;SDS011;9199;48.832;9.182;2023-07-02T00:28:21;6.53;;;3.60;;
18146;SDS011;9199;48.832;9.182;2023-07-02T00:30:48;7.07;;;3.33;;
18146;SDS011;9199;48.832;9.182;2023-07-02T00:33:16;9.98;;;3.83;;
18146;SDS011;9199;48.832;9.182;2023-07-02T00:35:43;7.60;;;3.60;;
18146;SDS011;9199;48.832;9.182;2023-07-02T00:38:09;7.53;;;4.07;;
18146;SDS011;9199;48.832;9.182;2023-07-02T00:40:36;8.65;;;4.00;;
18146;SDS011;9199;48.832;9.182;2023-07-02T00:43:03;6.35;;;3.85;;
18146;SDS011;9199;48.832;9.182;2023-07-02T00:45:30;7.15;;;4.07;;
18146;SDS011;9199;48.832;9.182;2023-07-02T00:47:56;7.33;;;3.23;;
18146;SDS011;9199;48.832;9.182;2023-07-02T00:50:25;5.30;;;3.30;;
18146;SDS011;9199;48.832;9.182;2023-07-02T00:52:52;6.28;;;3.47;;
18146;SDS011;9199;48.832;9.182;2023-07-02T00:55:20;5.25;;;3.20;;
18146;SDS011;9199;48.832;9.182;2023-07-02T00:57:47;5.22;;;2.88;;
18146;SDS011;9199;48.832;9.182;2023-07-02T01:00:13;4.93;;;2.90;;
18146;SDS011;9199;48.832;9.182;2023-07-02T01:02:41;7.25;;;3.13;;
18146;SDS011;9199;48.832;9.182;2023-07-02T01:05:09;7.05;;;2.78;;
18146;SDS011;9199;48.832;9.182;2023-07-02T01:07:41;5.65;;;2.38;;
18146;SDS011;9199;48.832;9.182;2023-07-02T01:10:08;6.88;;;2.80;;
18146;SDS011;9199;48.832;9.182;2023-07-02T01:12:35;5.23;;;2.60;;
18146;SDS011;9199;48.832;9.182;2023-07-02T01:15:03;6.22;;;2.63;;
18146;SDS011;9199;48.832;9.182;2023-07-02T01:17:32;6.05;;;2.80;;
18146;SDS011;9199;48.832;9.182;2023-07-02T01:20:08;5.57;;;2.80;;
18146;SDS011;9199;48.832;9.182;2023-07-02T01:22:36;7.00;;;2.95;;
18146;SDS011;9199;48.832;9.182;2023-07-02T01:25:03;6.00;;;3.17;;
18146;SDS011;9199;48.832;9.182;2023-07-02T01:27:33;4.47;;;2.60;;
18146;SDS011;9199;48.832;9.182;2023-07-02T01:30:01;5.00;;;2.75;;
18146;SDS011;9199;48.832;9.182;2023-07-02T01:32:29;6.13;;;2.90;;
18146;SDS011;9199;48.832;9.182;2023-07-02T01:34:56;5.72;;;2.85;;
18146;SDS011;9199;48.832;9.182;2023-07-02T01:37:25;6.37;;;2.93;;
18146;SDS011;9199;48.832;9.182;2023-07-02T01:39:52;5.90;;;3.13;;
18146;SDS011;9199;48.832;9.182;2023-07-02T01:42:18;7.72;;;3.10;;
18146;SDS011;9199;48.832;9.182;2023-07-02T01:44:46;5.00;;;2.97;;
18146;SDS011;9199;48.832;9.182;2023-07-02T01:47:16;6.07;;;2.75;;
18146;SDS011;9199;48.832;9.182;2023-07-02T01:49:44;7.37;;;2.87;;
18146;SDS011;9199;48.832;9.182;2023-07-02T01:52:11;5.45;;;2.55;;
18146;SDS011;9199;48.832;9.182;2023-07-02T01:54:39;6.53;;;2.92;;
18146;SDS011;9199;48.832;9.182;2023-07-02T01:57:06;5.70;;;2.80;;
18146;SDS011;9199;48.832;9.182;2023-07-02T01:59:33;8.82;;;2.80;;
18146;SDS011;9199;48.832;9.182;2023-07-02T02:02:00;4.90;;;2.70;;
18146;SDS011;9199;48.832;9.182;2023-07-02T02:04:27;5.32;;;2.70;;
18146;SDS011;9199;48.832;9.182;2023-07-02T02:06:54;4.70;;;2.70;;
18146;SDS011;9199;48.832;9.182;2023-07-02T02:09:21;4.70;;;2.63;;
18146;SDS011;9199;48.832;9.182;2023-07-02T02:11:49;5.63;;;2.70;;
18146;SDS011;9199;48.832;9.182;2023-07-02T02:14:17;6.97;;;3.33;;
18146;SDS011;9199;48.832;9.182;2023-07-02T02:16:44;5.72;;;3.20;;
18146;SDS011;9199;48.832;9.182;2023-07-02T02:19:11;5.82;;;3.10;;
18146;SDS011;9199;48.832;9.182;2023-07-02T02:21:39;6.65;;;3.28;;
18146;SDS011;9199;48.832;9.182;2023-07-02T02:24:06;5.22;;;3.08;;
18146;SDS011;9199;48.832;9.182;2023-07-02T02:26:33;6.40;;;3.00;;
18146;SDS011;9199;48.832;9.182;2023-07-02T02:29:02;6.72;;;2.80;;
18146;SDS011;9199;48.832;9.182;2023-07-02T02:31:28;5.03;;;2.58;;
18146;SDS011;9199;48.832;9.182;2023-07-02T02:33:55;6.72;;;2.80;;
18146;SDS011;9199;48.832;9.182;2023-07-02T02:36:22;5.30;;;2.70;;
18146;SDS011;9199;48.832;9.182;2023-07-02T02:38:49;6.00;;;2.67;;
18146;SDS011;9199;48.832;9.182;2023-07-02T02:41:16;5.35;;;2.53;;
18146;SDS011;9199;48.832;9.182;2023-07-02T02:43:42;4.80;;;2.45;;
18146;SDS011;9199;48.832;9.182;2023-07-02T02:46:11;5.35;;;2.83;;
18146;SDS011;9199;48.832;9.182;2023-07-02T02:48:37;5.00;;;2.75;;
18146;SDS011;9199;48.832;9.182;2023-07-02T02:51:04;4.90;;;2.53;;
18146;SDS011;9199;48.832;9.182;2023-07-02T02:53:31;4.75;;;2.53;;
18146;SDS011;9199;48.832;9.182;2023-07-02T02:55:58;4.72;;;2.60;;
18146;SDS011;9199;48.832;9.182;2023-07-02T02:58:24;5.38;;;2.33;;
18146;SDS011;9199;48.832;9.182;2023-07-02T03:00:53;4.80;;;2.47;;
18146;SDS011;9199;48.832;9.182;2023-07-02T03:03:21;5.70;;;2.70;;
18146;SDS011;9199;48.832;9.182;2023-07-02T03:05:49;4.70;;;2.40;;
18146;SDS011;9199;48.832;9.182;2023-07-02T03:08:16;6.05;;;2.85;;
18146;SDS011;9199;48.832;9.182;2023-07-02T03:10:42;4.75;;;2.50;;
18146;SDS011;9199;48.832;9.182;2023-07-02T03:13:09;7.78;;;2.70;;
18146;SDS011;9199;48.832;9.182;2023-07-02T03:15:36;6.17;;;2.40;;
18146;SDS011;9199;48.832;9.182;2023-07-02T03:18:03;6.47;;;2.80;;
18146;SDS011;9199;48.832;9.182;2023-07-02T03:20:31;5.28;;;2.60;;
18146;SDS011;9199;48.832;9.182;2023-07-02T03:22:57;6.18;;;2.80;;
18146;SDS011;9199;48.832;9.182;2023-07-02T03:25:24;5.85;;;2.78;;
18146;SDS011;9199;48.832;9.182;2023-07-02T03:27:51;4.80;;;3.10;;
18146;SDS011;9199;48.832;9.182;2023-07-02T03:30:18;6.15;;;2.90;;
18146;SDS011;9199;48.832;9.182;2023-07-02T03:32:45;7.10;;;3.28;;
18146;SDS011;9199;48.832;9.182;2023-07-02T03:35:11;7.68;;;3.40;;
18146;SDS011;9199;48.832;9.182;2023-07-02T03:37:39;7.03;;;3.35;;
18146;SDS011;9199;48.832;9.182;2023-07-02T03:40:08;7.90;;;3.47;;
18146;SDS011;9199;48.832;9.182;2023-07-02T03:42:35;7.70;;;3.70;;
18146;SDS011;9199;48.832;9.182;2023-07-02T03:45:02;8.65;;;3.40;;
18146;SDS011;9199;48.832;9.182;2023-07-02T03:47:29;9.18;;;3.58;;
18146;SDS011;9199;48.832;9.182;2023-07-02T03:49:56;7.45;;;3.38;;
18146;SDS011;9199;48.832;9.182;2023-07-02T03:52:23;10.27;;;3.50;;
18146;SDS011;9199;48.832;9.182;2023-07-02T03:54:51;10.05;;;3.63;;
18146;SDS011;9199;48.832;9.182;2023-07-02T03:57:17;8.27;;;3.45;;
18146;SDS011;9199;48.832;9.182;2023-07-02T03:59:44;13.23;;;3.65;;
18146;SDS011;9199;48.832;9.182;2023-07-02T04:02:11;9.20;;;3.80;;
18146;SDS011;9199;48.832;9.182;2023-07-02T04:04:37;9.97;;;3.60;;
18146;SDS011;9199;48.832;9.182;2023-07-02T04:07:04;8.10;;;3.30;;
18146;SDS011;9199;48.832;9.182;2023-07-02T04:09:31;7.97;;;3.63;;
18146;SDS011;9199;48.832;9.182;2023-07-02T04:11:59;8.32;;;3.45;;
18146;SDS011;9199;48.832;9.182;2023-07-02T04:14:26;9.40;;;3.83;;
18146;SDS011;9199;48.832;9.182;2023-07-02T04:16:53;8.90;;;3.70;;
18146;SDS011;9199;48.832;9.182;2023-07-02T04:19:20;10.55;;;3.55;;
18146;SDS011;9199;48.832;9.182;2023-07-02T04:21:47;11.60;;;3.72;;
18146;SDS011;9199;48.832;9.182;2023-07-02T04:24:14;8.75;;;3.88;;
18146;SDS011;9199;48.832;9.182;2023-07-02T04:26:40;11.23;;;3.90;;
18146;SDS011;9199;48.832;9.182;2023-07-02T04:29:09;8.37;;;3.50;;
18146;SDS011;9199;48.832;9.182;2023-07-02T04:31:36;7.88;;;3.53;;
18146;SDS011;9199;48.832;9.182;2023-07-02T04:34:03;10.82;;;3.75;;
18146;SDS011;9199;48.832;9.182;2023-07-02T04:36:31;9.43;;;3.47;;
18146;SDS011;9199;48.832;9.182;2023-07-02T04:38:57;8.23;;;3.30;;
18146;SDS011;9199;48.832;9.182;2023-07-02T04:41:24;7.83;;;3.60;;
18146;SDS011;9199;48.832;9.182;2023-07-02T04:43:52;8.98;;;3.50;;
18146;SDS011;9199;48.832;9.182;2023-07-02T04:46:20;8.85;;;3.60;;
18146;SDS011;9199;48.832;9.182;2023-07-02T04:48:47;6.97;;;3.25;;
18146;SDS011;9199;48.832;9.182;2023-07-02T04:51:13;10.63;;;3.63;;
18146;SDS011;9199;48.832;9.182;2023-07-02T04:53:40;8.00;;;3.07;;
18146;SDS011;9199;48.832;9.182;2023-07-02T04:56:07;9.98;;;3.30;;
18146;SDS011;9199;48.832;9.182;2023-07-02T04:58:34;8.43;;;3.47;;
18146;SDS011;9199;48.832;9.182;2023-07-02T05:01:01;7.38;;;3.42;;
18146;SDS011;9199;48.832;9.182;2023-07-02T05:03:29;8.23;;;3.35;;
18146;SDS011;9199;48.832;9.182;2023-07-02T05:05:55;8.50;;;3.23;;
18146;SDS011;9199;48.832;9.182;2023-07-02T05:08:22;11.07;;;3.20;;
18146;SDS011;9199;48.832;9.182;2023-07-02T05:10:49;7.13;;;3.40;;
18146;SDS011;9199;48.832;9.182;2023-07-02T05:13:15;11.10;;;3.88;;
18146;SDS011;9199;48.832;9.182;2023-07-02T05:15:42;8.88;;;3.30;;
18146;SDS011;9199;48.832;9.182;2023-07-02T05:18:09;8.07;;;3.07;;
18146;SDS011;9199;48.832;9.182;2023-07-02T05:20:37;7.78;;;3.17;;
18146;SDS011;9199;48.832;9.182;2023-07-02T05:23:04;5.38;;;2.42;;
18146;SDS011;9199;48.832;9.182;2023-07-02T05:25:31;6.20;;;2.90;;
18146;SDS011;9199;48.832;9.182;2023-07-02T05:27:58;6.85;;;3.00;;
18146;SDS011;9199;48.832;9.182;2023-07-02T05:30:25;7.10;;;3.37;;
18146;SDS011;9199;48.832;9.182;2023-07-02T05:32:52;8.98;;;2.63;;
18146;SDS011;9199;48.832;9.182;2023-07-02T05:35:19;8.30;;;2.60;;
18146;SDS011;9199;48.832;9.182;2023-07-02T05:37:47;7.97;;;2.90;;
18146;SDS011;9199;48.832;9.182;2023-07-02T05:40:13;9.00;;;3.00;;
18146;SDS011;9199;48.832;9.182;2023-07-02T05:42:40;7.17;;;2.80;;
18146;SDS011;9199;48.832;9.182;2023-07-02T05:45:08;8.43;;;3.08;;
18146;SDS011;9199;48.832;9.182;2023-07-02T05:47:35;7.50;;;2.97;;
18146;SDS011;9199;48.832;9.182;2023-07-02T05:50:02;9.57;;;3.25;;
18146;SDS011;9199;48.832;9.182;2023-07-02T05:52:30;10.15;;;3.47;;
18146;SDS011;9199;48.832;9.182;2023-07-02T05:54:58;7.90;;;3.53;;
18146;SDS011;9199;48.832;9.182;2023-07-02T05:57:25;8.23;;;3.75;;
18146;SDS011;9199;48.832;9.182;2023-07-02T05:59:51;8.63;;;3.55;;
18146;SDS011;9199;48.832;9.182;2023-07-02T06:02:18;9.63;;;3.75;;
18146;SDS011;9199;48.832;9.182;2023-07-02T06:04:45;11.13;;;4.40;;
18146;SDS011;9199;48.832;9.182;2023-07-02T06:07:11;11.50;;;4.53;;
18146;SDS011;9199;48.832;9.182;2023-07-02T06:09:38;11.25;;;4.10;;
18146;SDS011;9199;48.832;9.182;2023-07-02T06:12:06;8.95;;;4.30;;
18146;SDS011;9199;48.832;9.182;2023-07-02T06:14:34;9.52;;;4.20;;
18146;SDS011;9199;48.832;9.182;2023-07-02T06:17:00;10.55;;;4.32;;
18146;SDS011;9199;48.832;9.182;2023-07-02T06:19:30;10.07;;;4.20;;
18146;SDS011;9199;48.832;9.182;2023-07-02T06:21:57;12.90;;;4.15;;
18146;SDS011;9199;48.832;9.182;2023-07-02T06:24:24;11.05;;;4.20;;
18146;SDS011;9199;48.832;9.182;2023-07-02T06:26:51;11.02;;;4.30;;
18146;SDS011;9199;48.832;9.182;2023-07-02T06:29:19;10.80;;;4.68;;
18146;SDS011;9199;48.832;9.182;2023-07-02T06:31:45;14.03;;;4.80;;
18146;SDS011;9199;48.832;9.182;2023-07-02T06:34:12;13.90;;;5.60;;
18146;SDS011;9199;48.832;9.182;2023-07-02T06:36:39;12.82;;;5.63;;
18146;SDS011;9199;48.832;9.182;2023-07-02T06:39:06;14.77;;;6.63;;
18146;SDS011;9199;48.832;9.182;2023-07-02T06:41:34;11.93;;;6.25;;
18146;SDS011;9199;48.832;9.182;2023-07-02T06:44:00;14.17;;;6.37;;
18146;SDS011;9199;48.832;9.182;2023-07-02T06:46:29;14.52;;;5.32;;
18146;SDS011;9199;48.832;9.182;2023-07-02T06:48:55;11.88;;;5.60;;
18146;SDS011;9199;48.832;9.182;2023-07-02T06:51:22;12.73;;;5.40;;
18146;SDS011;9199;48.832;9.182;2023-07-02T06:53:51;12.80;;;5.50;;
18146;SDS011;9199;48.832;9.182;2023-07-02T06:56:17;11.53;;;5.33;;
18146;SDS011;9199;48.832;9.182;2023-07-02T06:58:44;12.90;;;5.03;;
18146;SDS011;9199;48.832;9.182;2023-07-02T07:01:11;12.40;;;5.20;;
18146;SDS011;9199;48.832;9.182;2023-07-02T07:03:39;13.77;;;4.80;;
18146;SDS011;9199;48.832;9.182;2023-07-02T07:06:06;12.43;;;5.18;;
18146;SDS011;9199;48.832;9.182;2023-07-02T07:08:32;12.57;;;5.73;;
18146;SDS011;9199;48.832;9.182;2023-07-02T07:11:02;13.88;;;5.90;;
18146;SDS011;9199;48.832;9.182;2023-07-02T07:13:29;15.48;;;6.32;;
18146;SDS011;9199;48.832;9.182;2023-07-02T07:15:56;15.07;;;6.45;;
18146;SDS011;9199;48.832;9.182;2023-07-02T07:18:22;15.20;;;6.32;;
18146;SDS011;9199;48.832;9.182;2023-07-02T07:20:50;11.97;;;6.13;;
18146;SDS011;9199;48.832;9.182;2023-07-02T07:23:18;16.17;;;7.15;;
18146;SDS011;9199;48.832;9.182;2023-07-02T07:25:44;15.43;;;7.40;;
18146;SDS011;9199;48.832;9.182;2023-07-02T07:28:11;15.48;;;7.50;;
18146;SDS011;9199;48.832;9.182;2023-07-02T07:30:40;16.02;;;7.32;;
18146;SDS011;9199;48.832;9.182;2023-07-02T07:33:07;15.57;;;7.47;;
18146;SDS011;9199;48.832;9.182;2023-07-02T07:35:34;18.30;;;7.88;;
18146;SDS011;9199;48.832;9.182;2023-07-02T07:38:02;16.25;;;8.77;;
18146;SDS011;9199;48.832;9.182;2023-07-02T07:40:29;18.83;;;8.23;;
18146;SDS011;9199;48.832;9.182;2023-07-02T07:42:55;17.80;;;8.50;;
18146;SDS011;9199;48.832;9.182;2023-07-02T07:45:22;18.60;;;9.07;;
18146;SDS011;9199;48.832;9.182;2023-07-02T07:47:49;21.00;;;8.73;;
18146;SDS011;9199;48.832;9.182;2023-07-02T07:50:16;21.42;;;9.18;;
18146;SDS011;9199;48.832;9.182;2023-07-02T07:52:43;21.50;;;10.20;;
18146;SDS011;9199;48.832;9.182;2023-07-02T07:55:11;23.23;;;9.38;;
18146;SDS011;9199;48.832;9.182;2023-07-02T07:57:38;22.70;;;8.93;;
18146;SDS011;9199;48.832;9.182;2023-07-02T08:00:05;19.88;;;9.25;;
18146;SDS011;9199;48.832;9.182;2023-07-02T08:02:33;19.67;;;8.93;;
18146;SDS011;9199;48.832;9.182;2023-07-02T08:05:00;20.00;;;9.70;;
18146;SDS011;9199;48.832;9.182;2023-07-02T08:07:27;17.65;;;8.77;;
18146;SDS011;9199;48.832;9.182;2023-07-02T08:09:54;20.43;;;10.13;;
18146;SDS011;9199;48.832;9.182;2023-07-02T08:12:22;19.35;;;8.68;;
18146;SDS011;9199;48.832;9.182;2023-07-02T08:14:49;20.08;;;9.70;;
18146;SDS011;9199;48.832;9.182;2023-07-02T08:17:16;20.83;;;9.48;;
18146;SDS011;9199;48.832;9.182;2023-07-02T08:19:42;21.77;;;9.68;;
18146;SDS011;9199;48.832;9.182;2023-07-02T08:22:09;19.53;;;9.43;;
18146;SDS011;9199;48.832;9.182;2023-07-02T08:24:36;19.70;;;9.45;;
18146;SDS011;9199;48.832;9.182;2023-07-02T08:27:03;20.17;;;10.15;;
18146;SDS011;9199;48.832;9.182;2023-07-02T08:29:31;20.00;;;9.43;;
18146;SDS011;9199;48.832;9.182;2023-07-02T08:31:58;20.95;;;9.70;;
18146;SDS011;9199;48.832;9.182;2023-07-02T08:34:25;17.53;;;9.23;;
18146;SDS011;9199;48.832;9.182;2023-07-02T08:36:52;18.20;;;9.45;;
18146;SDS011;9199;48.832;9.182;2023-07-02T08:39:18;20.00;;;9.48;;
18146;SDS011;9199;48.832;9.182;2023-07-02T08:41:46;18.80;;;9.18;;
18146;SDS011;9199;48.832;9.182;2023-07-02T08:44:13;23.35;;;9.77;;
18146;SDS011;9199;48.832;9.182;2023-07-02T08:46:42;18.53;;;9.57;;
18146;SDS011;9199;48.832;9.182;2023-07-02T08:49:09;20.75;;;9.73;;
18146;SDS011;9199;48.832;9.182;2023-07-02T08:51:36;19.40;;;9.70;;
18146;SDS011;9199;48.832;9.182;2023-07-02T08:54:03;19.48;;;9.45;;
18146;SDS011;9199;48.832;9.182;2023-07-02T08:56:30;19.63;;;9.50;;
18146;SDS011;9199;48.832;9.182;2023-07-02T08:58:57;20.43;;;9.10;;
18146;SDS011;9199;48.832;9.182;2023-07-02T09:01:23;19.75;;;9.25;;
18146;SDS011;9199;48.832;9.182;2023-07-02T09:03:51;19.58;;;9.25;;
18146;SDS011;9199;48.832;9.182;2023-07-02T09:06:24;18.95;;;8.80;;
18146;SDS011;9199;48.832;9.182;2023-07-02T09:08:51;16.77;;;9.20;;
18146;SDS011;9199;48.832;9.182;2023-07-02T09:11:17;17.33;;;8.13;;
18146;SDS011;9199;48.832;9.182;2023-07-02T09:13:45;20.73;;;9.70;;
18146;SDS011;9199;48.832;9.182;2023-07-02T09:16:23;21.33;;;9.48;;
18146;SDS011;9199;48.832;9.182;2023-07-02T09:19:02;17.95;;;9.07;;
18146;SDS011;9199;48.832;9.182;2023-07-02T09:21:40;19.45;;;8.95;;
18146;SDS011;9199;48.832;9.182;2023-07-02T09:24:12;17.33;;;9.13;;
18146;SDS011;9199;48.832;9.182;2023-07-02T09:26:41;18.67;;;9.55;;
18146;SDS011;9199;48.832;9.182;2023-07-02T09:29:09;17.60;;;9.20;;
18146;SDS011;9199;48.832;9.182;2023-07-02T09:31:42;21.95;;;9.30;;
18146;SDS011;9199;48.832;9.182;2023-07-02T09:34:11;17.75;;;8.82;;
18146;SDS011;9199;48.832;9.182;2023-07-02T09:36:39;15.67;;;9.40;;
18146;SDS011;9199;48.832;9.182;2023-07-02T09:39:06;18.10;;;9.27;;
18146;SDS011;9199;48.832;9.182;2023-07-02T09:41:34;18.02;;;9.73;;
18146;SDS011;9199;48.832;9.182;2023-07-02T09:44:01;17.67;;;8.90;;
18146;SDS011;9199;48.832;9.182;2023-07-02T09:46:29;19.10;;;8.75;;
18146;SDS011;9199;48.832;9.182;2023-07-02T09:48:57;16.33;;;8.93;;
18146;SDS011;9199;48.832;9.182;2023-07-02T09:51:27;18.27;;;9.15;;
18146;SDS011;9199;48.832;9.182;2023-07-02T09:53:54;17.42;;;9.43;;
18146;SDS011;9199;48.832;9.182;2023-07-02T09:56:21;18.58;;;9.90;;
18146;SDS011;9199;48.832;9.182;2023-07-02T09:58:48;18.13;;;9.25;;
18146;SDS011;9199;48.832;9.182;2023-07-02T10:01:15;19.43;;;9.63;;
18146;SDS011;9199;48.832;9.182;2023-07-02T10:03:41;17.60;;;9.27;;
18146;SDS011;9199;48.832;9.182;2023-07-02T10:06:08;17.42;;;9.35;;
18146;SDS011;9199;48.832;9.182;2023-07-02T10:08:36;19.73;;;9.63;;
18146;SDS011;9199;48.832;9.182;2023-07-02T10:11:06;14.82;;;9.30;;
18146;SDS011;9199;48.832;9.182;2023-07-02T10:13:34;18.53;;;9.80;;
18146;SDS011;9199;48.832;9.182;2023-07-02T10:16:01;17.63;;;9.80;;
18146;SDS011;9199;48.832;9.182;2023-07-02T10:18:28;18.50;;;10.38;;
18146;SDS011;9199;48.832;9.182;2023-07-02T10:20:55;16.60;;;9.30;;
18146;SDS011;9199;48.832;9.182;2023-07-02T10:23:31;19.25;;;9.65;;
18146;SDS011;9199;48.832;9.182;2023-07-02T10:26:10;17.73;;;10.10;;
18146;SDS011;9199;48.832;9.182;2023-07-02T10:28:39;16.60;;;9.20;;
18146;SDS011;9199;48.832;9.182;2023-07-02T10:31:17;18.65;;;9.88;;
18146;SDS011;9199;48.832;9.182;2023-07-02T10:33:45;18.23;;;9.10;;
18146;SDS011;9199;48.832;9.182;2023-07-02T10:36:17;16.67;;;9.40;;
18146;SDS011;9199;48.832;9.182;2023-07-02T10:38:45;15.80;;;8.97;;
18146;SDS011;9199;48.832;9.182;2023-07-02T10:41:22;15.38;;;9.13;;
18146;SDS011;9199;48.832;9.182;2023-07-02T10:43:49;17.42;;;9.18;;
18146;SDS011;9199;48.832;9.182;2023-07-02T10:46:18;17.27;;;9.82;;
18146;SDS011;9199;48.832;9.182;2023-07-02T10:48:50;15.35;;;9.13;;
18146;SDS011;9199;48.832;9.182;2023-07-02T10:51:17;18.53;;;10.30;;
18146;SDS011;9199;48.832;9.182;2023-07-02T10:53:44;18.17;;;11.02;;
18146;SDS011;9199;48.832;9.182;2023-07-02T10:56:16;21.13;;;11.35;;
18146;SDS011;9199;48.832;9.182;2023-07-02T10:58:43;23.02;;;10.95;;
18146;SDS011;9199;48.832;9.182;2023-07-02T11:01:11;19.75;;;11.07;;
18146;SDS011;9199;48.832;9.182;2023-07-02T11:03:38;23.47;;;11.17;;
18146;SDS011;9199;48.832;9.182;2023-07-02T11:06:04;17.15;;;10.00;;
18146;SDS011;9199;48.832;9.182;2023-07-02T11:08:34;18.10;;;10.27;;
18146;SDS011;9199;48.832;9.182;2023-07-02T11:11:06;17.20;;;9.68;;
18146;SDS011;9199;48.832;9.182;2023-07-02T11:13:34;19.52;;;9.68;;
18146;SDS011;9199;48.832;9.182;2023-07-02T11:16:16;16.33;;;8.63;;
18146;SDS011;9199;48.832;9.182;2023-07-02T11:18:45;18.17;;;9.90;;
18146;SDS011;9199;48.832;9.182;2023-07-02T11:21:11;15.07;;;9.27;;
18146;SDS011;9199;48.832;9.182;2023-07-02T11:23:38;16.33;;;9.57;;
18146;SDS011;9199;48.832;9.182;2023-07-02T11:26:05;17.50;;;9.57;;
18146;SDS011;9199;48.832;9.182;2023-07-02T11:28:31;16.63;;;9.50;;
18146;SDS011;9199;48.832;9.182;2023-07-02T11:31:01;17.30;;;9.63;;
18146;SDS011;9199;48.832;9.182;2023-07-02T11:33:32;15.25;;;8.68;;
18146;SDS011;9199;48.832;9.182;2023-07-02T11:36:00;15.38;;;9.45;;
18146;SDS011;9199;48.832;9.182;2023-07-02T11:38:26;16.38;;;9.70;;
18146;SDS011;9199;48.832;9.182;2023-07-02T11:40:53;19.33;;;10.47;;
18146;SDS011;9199;48.832;9.182;2023-07-02T11:43:20;17.33;;;9.65;;
18146;SDS011;9199;48.832;9.182;2023-07-02T11:45:46;16.90;;;9.88;;
18146;SDS011;9199;48.832;9.182;2023-07-02T11:48:14;15.13;;;9.02;;
18146;SDS011;9199;48.832;9.182;2023-07-02T11:50:41;15.23;;;9.30;;
18146;SDS011;9199;48.832;9.182;2023-07-02T11:53:08;15.23;;;9.40;;
18146;SDS011;9199;48.832;9.182;2023-07-02T11:55:35;18.67;;;10.10;;
18146;SDS011;9199;48.832;9.182;2023-07-02T11:58:02;15.85;;;9.93;;
18146;SDS011;9199;48.832;9.182;2023-07-02T12:00:29;18.42;;;10.60;;
18146;SDS011;9199;48.832;9.182;2023-07-02T12:02:56;18.15;;;10.13;;
18146;SDS011;9199;48.832;9.182;2023-07-02T12:05:24;18.63;;;10.23;;
18146;SDS011;9199;48.832;9.182;2023-07-02T12:07:50;18.73;;;10.00;;
18146;SDS011;9199;48.832;9.182;2023-07-02T12:10:17;18.35;;;10.15;;
18146;SDS011;9199;48.832;9.182;2023-07-02T12:12:44;18.10;;;10.15;;
18146;SDS011;9199;48.832;9.182;2023-07-02T12:15:11;18.15;;;9.95;;
18146;SDS011;9199;48.832;9.182;2023-07-02T12:17:38;17.30;;;9.87;;
18146;SDS011;9199;48.832;9.182;2023-07-02T12:20:05;19.77;;;9.85;;
18146;SDS011;9199;48.832;9.182;2023-07-02T12:22:33;17.50;;;9.80;;
18146;SDS011;9199;48.832;9.182;2023-07-02T12:25:00;19.52;;;10.63;;
18146;SDS011;9199;48.832;9.182;2023-07-02T12:27:27;18.48;;;10.48;;
18146;SDS011;9199;48.832;9.182;2023-07-02T12:29:54;17.90;;;9.93;;
18146;SDS011;9199;48.832;9.182;2023-07-02T12:32:21;18.20;;;10.27;;
18146;SDS011;9199;48.832;9.182;2023-07-02T12:34:48;20.25;;;10.73;;
18146;SDS011;9199;48.832;9.182;2023-07-02T12:37:15;18.13;;;10.07;;
18146;SDS011;9199;48.832;9.182;2023-07-02T12:39:44;18.80;;;10.73;;
18146;SDS011;9199;48.832;9.182;2023-07-02T12:42:10;18.80;;;10.23;;
18146;SDS011;9199;48.832;9.182;2023-07-02T12:44:37;17.15;;;10.35;;
18146;SDS011;9199;48.832;9.182;2023-07-02T12:47:04;16.95;;;10.02;;
18146;SDS011;9199;48.832;9.182;2023-07-02T12:49:31;15.20;;;9.82;;
18146;SDS011;9199;48.832;9.182;2023-07-02T12:51:58;17.52;;;10.57;;
18146;SDS011;9199;48.832;9.182;2023-07-02T12:54:24;16.77;;;10.30;;
18146;SDS011;9199;48.832;9.182;2023-07-02T12:56:52;16.63;;;10.43;;
18146;SDS011;9199;48.832;9.182;2023-07-02T12:59:19;19.02;;;11.00;;
18146;SDS011;9199;48.832;9.182;2023-07-02T13:01:46;16.67;;;10.30;;
18146;SDS011;9199;48.832;9.182;2023-07-02T13:04:13;18.38;;;10.40;;
18146;SDS011;9199;48.832;9.182;2023-07-02T13:06:40;21.57;;;11.20;;
18146;SDS011;9199;48.832;9.182;2023-07-02T13:09:07;18.73;;;10.55;;
18146;SDS011;9199;48.832;9.182;2023-07-02T13:11:34;16.83;;;10.50;;
18146;SDS011;9199;48.832;9.182;2023-07-02T13:14:02;19.23;;;11.38;;
18146;SDS011;9199;48.832;9.182;2023-07-02T13:16:29;18.48;;;10.75;;
18146;SDS011;9199;48.832;9.182;2023-07-02T13:18:56;20.30;;;10.83;;
18146;SDS011;9199;48.832;9.182;2023-07-02T13:21:22;18.88;;;10.68;;
18146;SDS011;9199;48.832;9.182;2023-07-02T13:23:49;17.45;;;10.50;;
18146;SDS011;9199;48.832;9.182;2023-07-02T13:26:16;17.95;;;9.82;;
18146;SDS011;9199;48.832;9.182;2023-07-02T13:28:43;18.25;;;10.85;;
18146;SDS011;9199;48.832;9.182;2023-07-02T13:31:13;17.53;;;10.53;;
18146;SDS011;9199;48.832;9.182;2023-07-02T13:33:40;18.88;;;11.10;;
18146;SDS011;9199;48.832;9.182;2023-07-02T13:36:07;17.02;;;10.77;;
18146;SDS011;9199;48.832;9.182;2023-07-02T13:38:34;17.42;;;11.00;;
18146;SDS011;9199;48.832;9.182;2023-07-02T13:41:01;17.38;;;10.48;;
18146;SDS011;9199;48.832;9.182;2023-07-02T13:43:28;17.93;;;10.93;;
18146;SDS011;9199;48.832;9.182;2023-07-02T13:45:55;17.90;;;10.18;;
18146;SDS011;9199;48.832;9.182;2023-07-02T13:48:23;17.02;;;10.25;;
18146;SDS011;9199;48.832;9.182;2023-07-02T13:50:50;18.42;;;10.65;;
18146;SDS011;9199;48.832;9.182;2023-07-02T13:53:17;15.40;;;10.02;;
18146;SDS011;9199;48.832;9.182;2023-07-02T13:55:44;16.90;;;10.13;;
18146;SDS011;9199;48.832;9.182;2023-07-02T13:58:11;16.13;;;10.48;;
18146;SDS011;9199;48.832;9.182;2023-07-02T14:00:39;17.75;;;10.52;;
18146;SDS011;9199;48.832;9.182;2023-07-02T14:03:06;17.80;;;10.10;;
18146;SDS011;9199;48.832;9.182;2023-07-02T14:05:33;17.65;;;10.63;;
18146;SDS011;9199;48.832;9.182;2023-07-02T14:07:59;18.33;;;10.43;;
18146;SDS011;9199;48.832;9.182;2023-07-02T14:10:26;18.98;;;11.15;;
18146;SDS011;9199;48.832;9.182;2023-07-02T14:12:53;17.88;;;10.73;;
18146;SDS011;9199;48.832;9.182;2023-07-02T14:15:20;19.98;;;10.70;;
18146;SDS011;9199;48.832;9.182;2023-07-02T14:17:49;18.35;;;11.00;;
18146;SDS011;9199;48.832;9.182;2023-07-02T14:20:16;16.17;;;10.87;;
18146;SDS011;9199;48.832;9.182;2023-07-02T14:22:43;15.93;;;10.82;;
18146;SDS011;9199;48.832;9.182;2023-07-02T14:25:10;16.20;;;10.18;;
18146;SDS011;9199;48.832;9.182;2023-07-02T14:27:37;18.13;;;11.35;;
18146;SDS011;9199;48.832;9.182;2023-07-02T14:30:04;17.50;;;10.60;;
18146;SDS011;9199;48.832;9.182;2023-07-02T14:32:32;17.43;;;10.33;;
18146;SDS011;9199;48.832;9.182;2023-07-02T14:35:02;15.57;;;10.50;;
18146;SDS011;9199;48.832;9.182;2023-07-02T14:37:29;14.75;;;10.18;;
18146;SDS011;9199;48.832;9.182;2023-07-02T14:39:56;15.60;;;10.38;;
18146;SDS011;9199;48.832;9.182;2023-07-02T14:42:22;17.65;;;10.48;;
18146;SDS011;9199;48.832;9.182;2023-07-02T14:44:49;17.90;;;10.50;;
18146;SDS011;9199;48.832;9.182;2023-07-02T14:47:16;17.10;;;10.27;;
18146;SDS011;9199;48.832;9.182;2023-07-02T14:49:43;17.55;;;10.30;;
18146;SDS011;9199;48.832;9.182;2023-07-02T14:52:11;17.15;;;10.52;;